sensor_id;sensor_type;location;lat;lon;timestamp;pressure;altitude;pressure_sealevel;temperature;humidity
75627;BME280;67372;49.404;11.034;2023-03-01T00:01:04;99069.00;;;-1.93;70.70
75627;BME280;67372;49.404;11.034;2023-03-01T00:03:32;99058.22;;;-1.89;70.04
75627;BME280;67372;49.404;11.034;2023-03-01T00:05:59;99070.69;;;-1.81;70.57
75627;BME280;67372;49.404;11.034;2023-03-01T00:08:26;99068.31;;;-1.73;69.82
75627;BME280;67372;49.404;11.034;2023-03-01T00:11:12;99069.63;;;-1.67;69.14
75627;BME280;67372;49.404;11.034;2023-03-01T00:13:40;99067.50;;;-1.62;69.21
75627;BME280;67372;49.404;11.034;2023-03-01T00:16:13;99070.72;;;-1.59;68.96
75627;BME280;67372;49.404;11.034;2023-03-01T00:18:40;99061.69;;;-1.55;69.25
75627;BME280;67372;49.404;11.034;2023-03-01T00:21:07;99069.41;;;-1.53;69.44
75627;BME280;67372;49.404;11.034;2023-03-01T00:23:34;99066.44;;;-1.48;68.43
75627;BME280;67372;49.404;11.034;2023-03-01T00:26:01;99066.06;;;-1.44;68.89
75627;BME280;67372;49.404;11.034;2023-03-01T00:28:27;99068.47;;;-1.41;67.52
75627;BME280;67372;49.404;11.034;2023-03-01T00:30:54;99063.25;;;-1.41;67.44
75627;BME280;67372;49.404;11.034;2023-03-01T00:33:20;99065.03;;;-1.41;68.24
75627;BME280;67372;49.404;11.034;2023-03-01T00:35:46;99068.69;;;-1.44;68.66
75627;BME280;67372;49.404;11.034;2023-03-01T00:38:13;99069.75;;;-1.46;68.52
75627;BME280;67372;49.404;11.034;2023-03-01T00:40:39;99073.44;;;-1.49;68.72
75627;BME280;67372;49.404;11.034;2023-03-01T00:43:05;99072.38;;;-1.46;68.43
75627;BME280;67372;49.404;11.034;2023-03-01T00:45:32;99064.41;;;-1.45;68.85
75627;BME280;67372;49.404;11.034;2023-03-01T00:47:59;99069.63;;;-1.45;69.03
75627;BME280;67372;49.404;11.034;2023-03-01T00:50:25;99063.44;;;-1.44;67.71
75627;BME280;67372;49.404;11.034;2023-03-01T00:52:53;99060.00;;;-1.44;68.78
75627;BME280;67372;49.404;11.034;2023-03-01T00:55:19;99054.66;;;-1.43;68.32
75627;BME280;67372;49.404;11.034;2023-03-01T00:57:46;99046.78;;;-1.43;68.39
75627;BME280;67372;49.404;11.034;2023-03-01T01:00:12;99052.78;;;-1.41;67.93
75627;BME280;67372;49.404;11.034;2023-03-01T01:02:38;99045.88;;;-1.42;68.58
75627;BME280;67372;49.404;11.034;2023-03-01T01:05:05;99037.06;;;-1.41;68.35
75627;BME280;67372;49.404;11.034;2023-03-01T01:07:31;99038.63;;;-1.38;68.21
75627;BME280;67372;49.404;11.034;2023-03-01T01:09:58;99042.19;;;-1.39;67.99
75627;BME280;67372;49.404;11.034;2023-03-01T01:12:24;99036.00;;;-1.38;68.03
75627;BME280;67372;49.404;11.034;2023-03-01T01:14:50;99038.63;;;-1.38;68.23
75627;BME280;67372;49.404;11.034;2023-03-01T01:17:17;99031.00;;;-1.41;68.28
75627;BME280;67372;49.404;11.034;2023-03-01T01:19:43;99021.25;;;-1.39;68.00
75627;BME280;67372;49.404;11.034;2023-03-01T01:22:10;99025.53;;;-1.38;67.98
75627;BME280;67372;49.404;11.034;2023-03-01T01:24:36;99017.69;;;-1.38;68.17
75627;BME280;67372;49.404;11.034;2023-03-01T01:27:02;99017.56;;;-1.37;67.75
75627;BME280;67372;49.404;11.034;2023-03-01T01:29:29;99023.63;;;-1.36;67.80
75627;BME280;67372;49.404;11.034;2023-03-01T01:31:55;99003.53;;;-1.36;67.19
75627;BME280;67372;49.404;11.034;2023-03-01T01:34:22;99003.53;;;-1.36;67.27
75627;BME280;67372;49.404;11.034;2023-03-01T01:36:51;99005.31;;;-1.36;67.24
75627;BME280;67372;49.404;11.034;2023-03-01T01:39:18;98996.75;;;-1.38;67.78
75627;BME280;67372;49.404;11.034;2023-03-01T01:41:44;98996.16;;;-1.42;67.89
75627;BME280;67372;49.404;11.034;2023-03-01T01:44:25;98995.44;;;-1.44;67.44
75627;BME280;67372;49.404;11.034;2023-03-01T01:47:06;99001.50;;;-1.43;67.57
75627;BME280;67372;49.404;11.034;2023-03-01T01:49:43;98989.38;;;-1.44;67.15
75627;BME280;67372;49.404;11.034;2023-03-01T01:52:20;98989.25;;;-1.43;66.78
75627;BME280;67372;49.404;11.034;2023-03-01T01:54:58;98982.34;;;-1.44;67.65
75627;BME280;67372;49.404;11.034;2023-03-01T01:57:34;98987.00;;;-1.47;66.98
75627;BME280;67372;49.404;11.034;2023-03-01T02:00:09;98985.44;;;-1.50;66.92
75627;BME280;67372;49.404;11.034;2023-03-01T02:02:36;98980.22;;;-1.50;66.75
75627;BME280;67372;49.404;11.034;2023-03-01T02:05:12;98970.00;;;-1.53;67.84
75627;BME280;67372;49.404;11.034;2023-03-01T02:07:40;98974.41;;;-1.53;67.66
75627;BME280;67372;49.404;11.034;2023-03-01T02:10:08;98970.13;;;-1.55;66.85
75627;BME280;67372;49.404;11.034;2023-03-01T02:12:36;98965.25;;;-1.59;68.27
75627;BME280;67372;49.404;11.034;2023-03-01T02:15:04;98961.94;;;-1.61;67.27
75627;BME280;67372;49.404;11.034;2023-03-01T02:17:31;98962.91;;;-1.62;67.53
75627;BME280;67372;49.404;11.034;2023-03-01T02:22:53;98951.81;;;-1.66;67.11
75627;BME280;67372;49.404;11.034;2023-03-01T02:30:43;98952.31;;;-1.72;66.77
75627;BME280;67372;49.404;11.034;2023-03-01T02:33:10;98955.03;;;-1.73;66.53
75627;BME280;67372;49.404;11.034;2023-03-01T02:35:38;98946.84;;;-1.80;67.22
75627;BME280;67372;49.404;11.034;2023-03-01T02:38:06;98942.81;;;-1.84;67.72
75627;BME280;67372;49.404;11.034;2023-03-01T02:40:34;98940.44;;;-1.87;67.02
75627;BME280;67372;49.404;11.034;2023-03-01T02:43:04;98946.72;;;-1.90;67.04
75627;BME280;67372;49.404;11.034;2023-03-01T02:45:34;98939.94;;;-1.92;67.24
75627;BME280;67372;49.404;11.034;2023-03-01T02:48:00;98939.38;;;-1.96;67.14
75627;BME280;67372;49.404;11.034;2023-03-01T02:53:12;98931.41;;;-2.05;67.81
75627;BME280;67372;49.404;11.034;2023-03-01T02:55:42;98927.63;;;-2.12;67.25
75627;BME280;67372;49.404;11.034;2023-03-01T02:58:09;98922.59;;;-2.16;67.67
75627;BME280;67372;49.404;11.034;2023-03-01T03:00:38;98926.41;;;-2.20;68.16
75627;BME280;67372;49.404;11.034;2023-03-01T03:03:05;98922.13;;;-2.21;67.50
75627;BME280;67372;49.404;11.034;2023-03-01T03:05:33;98923.31;;;-2.25;68.83
75627;BME280;67372;49.404;11.034;2023-03-01T03:08:01;98922.72;;;-2.28;68.44
75627;BME280;67372;49.404;11.034;2023-03-01T03:10:31;98928.56;;;-2.36;69.14
75627;BME280;67372;49.404;11.034;2023-03-01T03:13:18;98914.16;;;-2.41;69.46
75627;BME280;67372;49.404;11.034;2023-03-01T03:15:44;98916.28;;;-2.47;69.13
75627;BME280;67372;49.404;11.034;2023-03-01T03:18:14;98908.69;;;-2.50;70.63
75627;BME280;67372;49.404;11.034;2023-03-01T03:20:42;98909.06;;;-2.54;71.79
75627;BME280;67372;49.404;11.034;2023-03-01T03:23:09;98911.53;;;-2.53;71.09
75627;BME280;67372;49.404;11.034;2023-03-01T03:25:35;98908.94;;;-2.53;70.33
75627;BME280;67372;49.404;11.034;2023-03-01T03:28:02;98908.94;;;-2.53;70.26
75627;BME280;67372;49.404;11.034;2023-03-01T03:30:30;98904.66;;;-2.54;70.98
75627;BME280;67372;49.404;11.034;2023-03-01T03:32:58;98905.59;;;-2.55;70.54
75627;BME280;67372;49.404;11.034;2023-03-01T03:37:52;98906.56;;;-2.56;72.02
75627;BME280;67372;49.404;11.034;2023-03-01T03:40:19;98913.44;;;-2.55;70.74
75627;BME280;67372;49.404;11.034;2023-03-01T03:42:45;98910.13;;;-2.57;71.26
75627;BME280;67372;49.404;11.034;2023-03-01T03:45:12;98900.63;;;-2.58;69.93
75627;BME280;67372;49.404;11.034;2023-03-01T03:47:38;98906.06;;;-2.61;70.28
75627;BME280;67372;49.404;11.034;2023-03-01T03:50:04;98903.56;;;-2.62;69.96
75627;BME280;67372;49.404;11.034;2023-03-01T03:52:31;98905.44;;;-2.64;70.54
75627;BME280;67372;49.404;11.034;2023-03-01T03:54:57;98902.84;;;-2.64;71.27
75627;BME280;67372;49.404;11.034;2023-03-01T03:57:24;98893.94;;;-2.62;71.62
75627;BME280;67372;49.404;11.034;2023-03-01T03:59:50;98894.78;;;-2.61;72.21
75627;BME280;67372;49.404;11.034;2023-03-01T04:02:16;98895.59;;;-2.61;72.38
75627;BME280;67372;49.404;11.034;2023-03-01T04:04:43;98896.22;;;-2.57;71.36
75627;BME280;67372;49.404;11.034;2023-03-01T04:07:09;98888.88;;;-2.52;71.89
75627;BME280;67372;49.404;11.034;2023-03-01T04:09:35;98895.53;;;-2.48;71.67
75627;BME280;67372;49.404;11.034;2023-03-01T04:12:02;98898.59;;;-2.43;70.73
75627;BME280;67372;49.404;11.034;2023-03-01T04:14:28;98897.53;;;-2.40;70.53
75627;BME280;67372;49.404;11.034;2023-03-01T04:16:54;98902.63;;;-2.39;71.68
75627;BME280;67372;49.404;11.034;2023-03-01T04:19:21;98905.13;;;-2.37;71.59
75627;BME280;67372;49.404;11.034;2023-03-01T04:21:47;98906.72;;;-2.35;71.14
75627;BME280;67372;49.404;11.034;2023-03-01T04:24:13;98909.09;;;-2.32;71.17
75627;BME280;67372;49.404;11.034;2023-03-01T04:26:40;98909.78;;;-2.30;70.88
75627;BME280;67372;49.404;11.034;2023-03-01T04:29:06;98906.22;;;-2.29;70.81
75627;BME280;67372;49.404;11.034;2023-03-01T04:31:32;98905.16;;;-2.26;70.52
75627;BME280;67372;49.404;11.034;2023-03-01T04:33:59;98905.03;;;-2.25;70.39
75627;BME280;67372;49.404;11.034;2023-03-01T04:36:27;98903.13;;;-2.23;70.24
75627;BME280;67372;49.404;11.034;2023-03-01T04:38:55;98913.47;;;-2.21;70.15
75627;BME280;67372;49.404;11.034;2023-03-01T04:41:23;98904.09;;;-2.24;70.47
75627;BME280;67372;49.404;11.034;2023-03-01T04:43:50;98913.59;;;-2.23;70.32
75627;BME280;67372;49.404;11.034;2023-03-01T04:46:19;98910.25;;;-2.25;70.43
75627;BME280;67372;49.404;11.034;2023-03-01T04:48:45;98908.47;;;-2.24;70.35
75627;BME280;67372;49.404;11.034;2023-03-01T04:51:12;98911.09;;;-2.24;70.52
75627;BME280;67372;49.404;11.034;2023-03-01T04:53:39;98906.69;;;-2.24;70.11
75627;BME280;67372;49.404;11.034;2023-03-01T04:56:06;98907.41;;;-2.22;70.56
75627;BME280;67372;49.404;11.034;2023-03-01T04:58:32;98897.78;;;-2.21;70.06
75627;BME280;67372;49.404;11.034;2023-03-01T05:00:59;98902.91;;;-2.20;70.22
75627;BME280;67372;49.404;11.034;2023-03-01T05:03:25;98903.72;;;-2.19;70.20
75627;BME280;67372;49.404;11.034;2023-03-01T05:05:53;98908.13;;;-2.20;69.95
75627;BME280;67372;49.404;11.034;2023-03-01T05:08:19;98902.78;;;-2.18;70.01
75627;BME280;67372;49.404;11.034;2023-03-01T05:10:52;98901.13;;;-2.19;70.19
75627;BME280;67372;49.404;11.034;2023-03-01T05:13:20;98899.09;;;-2.16;69.34
75627;BME280;67372;49.404;11.034;2023-03-01T05:15:49;98902.66;;;-2.17;69.91
75627;BME280;67372;49.404;11.034;2023-03-01T05:18:19;98897.44;;;-2.17;69.64
75627;BME280;67372;49.404;11.034;2023-03-01T05:20:46;98900.16;;;-2.18;69.33
75627;BME280;67372;49.404;11.034;2023-03-01T05:23:12;98906.22;;;-2.18;69.09
75627;BME280;67372;49.404;11.034;2023-03-01T05:25:39;98895.06;;;-2.20;69.87
75627;BME280;67372;49.404;11.034;2023-03-01T05:28:07;98900.53;;;-2.23;69.75
75627;BME280;67372;49.404;11.034;2023-03-01T05:30:35;98897.78;;;-2.21;69.81
75627;BME280;67372;49.404;11.034;2023-03-01T05:33:02;98898.75;;;-2.22;69.83
75627;BME280;67372;49.404;11.034;2023-03-01T05:35:28;98893.63;;;-2.24;69.55
75627;BME280;67372;49.404;11.034;2023-03-01T05:37:55;98898.03;;;-2.24;69.57
75627;BME280;67372;49.404;11.034;2023-03-01T05:40:23;98893.16;;;-2.29;69.80
75627;BME280;67372;49.404;11.034;2023-03-01T05:42:55;98900.06;;;-2.28;69.69
75627;BME280;67372;49.404;11.034;2023-03-01T05:45:24;98889.59;;;-2.28;69.95
75627;BME280;67372;49.404;11.034;2023-03-01T05:47:51;98891.50;;;-2.30;70.17
75627;BME280;67372;49.404;11.034;2023-03-01T05:50:22;98885.56;;;-2.32;70.53
75627;BME280;67372;49.404;11.034;2023-03-01T05:52:51;98888.06;;;-2.30;70.08
75627;BME280;67372;49.404;11.034;2023-03-01T05:55:20;98887.13;;;-2.29;69.73
75627;BME280;67372;49.404;11.034;2023-03-01T05:57:47;98886.28;;;-2.30;69.89
75627;BME280;67372;49.404;11.034;2023-03-01T06:00:16;98883.66;;;-2.30;70.21
75627;BME280;67372;49.404;11.034;2023-03-01T06:02:43;98888.78;;;-2.28;70.03
75627;BME280;67372;49.404;11.034;2023-03-01T06:05:11;98887.81;;;-2.27;69.93
75627;BME280;67372;49.404;11.034;2023-03-01T06:07:38;98885.22;;;-2.27;69.93
75627;BME280;67372;49.404;11.034;2023-03-01T06:10:05;98884.00;;;-2.23;69.56
75627;BME280;67372;49.404;11.034;2023-03-01T06:12:33;98882.94;;;-2.21;69.80
75627;BME280;67372;49.404;11.034;2023-03-01T06:15:00;98882.94;;;-2.21;69.70
75627;BME280;67372;49.404;11.034;2023-03-01T06:17:29;98886.97;;;-2.17;69.63
75627;BME280;67372;49.404;11.034;2023-03-01T06:19:56;98881.50;;;-2.13;69.61
75627;BME280;67372;49.404;11.034;2023-03-01T06:22:23;98877.84;;;-2.11;69.54
75627;BME280;67372;49.404;11.034;2023-03-01T06:24:49;98887.00;;;-2.05;69.02
75627;BME280;67372;49.404;11.034;2023-03-01T06:27:15;98874.25;;;-1.99;69.11
75627;BME280;67372;49.404;11.034;2023-03-01T06:29:42;98878.41;;;-1.96;68.68
75627;BME280;67372;49.404;11.034;2023-03-01T06:32:08;98872.13;;;-1.94;69.11
75627;BME280;67372;49.404;11.034;2023-03-01T06:34:35;98879.63;;;-1.89;68.99
75627;BME280;67372;49.404;11.034;2023-03-01T06:37:01;98873.06;;;-1.83;68.40
75627;BME280;67372;49.404;11.034;2023-03-01T06:39:27;98872.56;;;-1.77;68.39
75627;BME280;67372;49.404;11.034;2023-03-01T06:41:54;98875.66;;;-1.72;68.48
75627;BME280;67372;49.404;11.034;2023-03-01T06:44:20;98884.69;;;-1.65;68.99
75627;BME280;67372;49.404;11.034;2023-03-01T06:46:46;98878.47;;;-1.53;70.27
75627;BME280;67372;49.404;11.034;2023-03-01T06:49:13;98871.66;;;-1.44;68.05
75627;BME280;67372;49.404;11.034;2023-03-01T06:51:39;98869.97;;;-1.34;67.53
75627;BME280;67372;49.404;11.034;2023-03-01T06:54:06;98879.88;;;-1.17;66.54
75627;BME280;67372;49.404;11.034;2023-03-01T06:56:32;98876.94;;;-1.03;66.23
75627;BME280;67372;49.404;11.034;2023-03-01T06:58:59;98871.06;;;-0.95;65.96
75627;BME280;67372;49.404;11.034;2023-03-01T07:01:26;98875.44;;;-0.84;65.38
75627;BME280;67372;49.404;11.034;2023-03-01T07:03:52;98883.88;;;-0.81;65.29
75627;BME280;67372;49.404;11.034;2023-03-01T07:06:19;98876.44;;;-0.76;64.73
75627;BME280;67372;49.404;11.034;2023-03-01T07:08:45;98874.16;;;-0.69;64.52
75627;BME280;67372;49.404;11.034;2023-03-01T07:11:11;98866.91;;;-0.56;64.53
75627;BME280;67372;49.404;11.034;2023-03-01T07:13:38;98869.97;;;-0.51;64.20
75627;BME280;67372;49.404;11.034;2023-03-01T07:16:05;98865.78;;;-0.42;64.42
75627;BME280;67372;49.404;11.034;2023-03-01T07:18:31;98865.09;;;-0.35;64.43
75627;BME280;67372;49.404;11.034;2023-03-01T07:20:58;98859.59;;;-0.32;63.79
75627;BME280;67372;49.404;11.034;2023-03-01T07:23:24;98863.47;;;-0.26;62.72
75627;BME280;67372;49.404;11.034;2023-03-01T07:25:54;98857.53;;;-0.28;63.19
75627;BME280;67372;49.404;11.034;2023-03-01T07:28:22;98857.41;;;-0.26;62.29
75627;BME280;67372;49.404;11.034;2023-03-01T07:30:49;98847.94;;;-0.18;63.75
75627;BME280;67372;49.404;11.034;2023-03-01T07:33:16;98847.53;;;-0.13;63.35
75627;BME280;67372;49.404;11.034;2023-03-01T07:35:43;98845.53;;;0.00;63.64
75627;BME280;67372;49.404;11.034;2023-03-01T07:38:09;98848.16;;;0.10;61.93
75627;BME280;67372;49.404;11.034;2023-03-01T07:40:36;98849.25;;;0.07;61.43
75627;BME280;67372;49.404;11.034;2023-03-01T07:43:02;98838.91;;;0.15;62.37
75627;BME280;67372;49.404;11.034;2023-03-01T07:45:29;98842.28;;;0.27;63.00
75627;BME280;67372;49.404;11.034;2023-03-01T07:47:55;98843.09;;;0.37;61.52
75627;BME280;67372;49.404;11.034;2023-03-01T07:50:22;98842.69;;;0.42;62.09
75627;BME280;67372;49.404;11.034;2023-03-01T07:52:49;98840.25;;;0.50;61.38
75627;BME280;67372;49.404;11.034;2023-03-01T07:55:16;98840.66;;;0.55;60.92
75627;BME280;67372;49.404;11.034;2023-03-01T07:57:42;98840.09;;;0.61;61.07
75627;BME280;67372;49.404;11.034;2023-03-01T08:00:11;98834.59;;;0.74;61.59
75627;BME280;67372;49.404;11.034;2023-03-01T08:02:37;98839.13;;;0.81;59.40
75627;BME280;67372;49.404;11.034;2023-03-01T08:05:04;98840.91;;;0.90;59.88
75627;BME280;67372;49.404;11.034;2023-03-01T08:07:30;98844.53;;;0.99;60.48
75627;BME280;67372;49.404;11.034;2023-03-01T08:09:57;98845.59;;;1.06;60.38
75627;BME280;67372;49.404;11.034;2023-03-01T08:12:23;98842.69;;;1.19;60.05
75627;BME280;67372;49.404;11.034;2023-03-01T08:14:49;98840.31;;;1.26;59.56
75627;BME280;67372;49.404;11.034;2023-03-01T08:17:16;98824.28;;;1.29;58.42
75627;BME280;67372;49.404;11.034;2023-03-01T08:19:42;98837.00;;;1.23;57.52
75627;BME280;67372;49.404;11.034;2023-03-01T08:22:09;98838.09;;;1.31;58.37
75627;BME280;67372;49.404;11.034;2023-03-01T08:24:35;98830.47;;;1.37;58.22
75627;BME280;67372;49.404;11.034;2023-03-01T08:27:01;98819.53;;;1.42;58.66
75627;BME280;67372;49.404;11.034;2023-03-01T08:29:30;98820.63;;;1.49;57.50
75627;BME280;67372;49.404;11.034;2023-03-01T08:31:57;98820.72;;;1.57;57.75
75627;BME280;67372;49.404;11.034;2023-03-01T08:34:23;98817.25;;;1.66;58.61
75627;BME280;67372;49.404;11.034;2023-03-01T08:36:49;98817.06;;;1.77;57.63
75627;BME280;67372;49.404;11.034;2023-03-01T08:39:16;98807.88;;;1.81;57.62
75627;BME280;67372;49.404;11.034;2023-03-01T08:41:43;98804.53;;;1.89;55.81
75627;BME280;67372;49.404;11.034;2023-03-01T08:44:14;98801.88;;;1.89;54.72
75627;BME280;67372;49.404;11.034;2023-03-01T08:46:41;98794.84;;;1.90;55.45
75627;BME280;67372;49.404;11.034;2023-03-01T08:49:13;98796.44;;;2.00;56.58
75627;BME280;67372;49.404;11.034;2023-03-01T08:51:41;98792.50;;;2.14;56.05
75627;BME280;67372;49.404;11.034;2023-03-01T08:54:13;98792.66;;;2.30;54.66
75627;BME280;67372;49.404;11.034;2023-03-01T08:56:39;98793.66;;;2.47;56.63
75627;BME280;67372;49.404;11.034;2023-03-01T08:59:06;98786.72;;;2.64;56.81
75627;BME280;67372;49.404;11.034;2023-03-01T09:01:32;98784.53;;;2.77;56.57
75627;BME280;67372;49.404;11.034;2023-03-01T09:03:59;98778.41;;;2.94;55.15
75627;BME280;67372;49.404;11.034;2023-03-01T09:06:25;98781.09;;;3.02;52.58
75627;BME280;67372;49.404;11.034;2023-03-01T09:08:51;98778.22;;;3.14;53.44
75627;BME280;67372;49.404;11.034;2023-03-01T09:11:20;98769.06;;;3.26;52.76
75627;BME280;67372;49.404;11.034;2023-03-01T09:13:48;98764.50;;;3.36;51.73
75627;BME280;67372;49.404;11.034;2023-03-01T09:16:18;98763.25;;;3.48;51.64
75627;BME280;67372;49.404;11.034;2023-03-01T09:18:49;98757.63;;;3.43;50.15
75627;BME280;67372;49.404;11.034;2023-03-01T09:21:16;98755.50;;;3.47;50.28
75627;BME280;67372;49.404;11.034;2023-03-01T09:23:56;98754.66;;;3.46;49.35
75627;BME280;67372;49.404;11.034;2023-03-01T09:26:23;98752.88;;;3.55;50.15
75627;BME280;67372;49.404;11.034;2023-03-01T09:28:53;98749.97;;;3.66;50.18
75627;BME280;67372;49.404;11.034;2023-03-01T09:31:21;98750.16;;;3.73;49.89
75627;BME280;67372;49.404;11.034;2023-03-01T09:33:49;98753.16;;;3.78;50.06
75627;BME280;67372;49.404;11.034;2023-03-01T09:36:18;98754.84;;;3.87;49.40
75627;BME280;67372;49.404;11.034;2023-03-01T09:38:45;98751.69;;;3.83;48.35
75627;BME280;67372;49.404;11.034;2023-03-01T09:41:46;98751.88;;;3.90;49.48
75627;BME280;67372;49.404;11.034;2023-03-01T09:46:53;98739.41;;;4.08;49.90
75627;BME280;67372;49.404;11.034;2023-03-01T09:49:35;98738.91;;;4.05;47.70
75627;BME280;67372;49.404;11.034;2023-03-01T09:52:21;98741.22;;;4.16;48.07
75627;BME280;67372;49.404;11.034;2023-03-01T09:54:52;98743.06;;;4.31;48.97
75627;BME280;67372;49.404;11.034;2023-03-01T09:57:28;98746.22;;;4.43;49.00
75627;BME280;67372;49.404;11.034;2023-03-01T10:00:10;98739.78;;;4.46;47.15
75627;BME280;67372;49.404;11.034;2023-03-01T10:02:57;98744.25;;;4.53;47.26
75627;BME280;67372;49.404;11.034;2023-03-01T10:08:24;98722.28;;;4.77;46.95
75627;BME280;67372;49.404;11.034;2023-03-01T10:10:52;98736.31;;;4.78;45.71
75627;BME280;67372;49.404;11.034;2023-03-01T10:13:28;98735.00;;;4.66;45.34
75627;BME280;67372;49.404;11.034;2023-03-01T10:16:09;98730.38;;;4.68;45.82
75627;BME280;67372;49.404;11.034;2023-03-01T10:18:39;98733.84;;;4.60;45.96
75627;BME280;67372;49.404;11.034;2023-03-01T10:21:17;98725.59;;;4.55;45.62
75627;BME280;67372;49.404;11.034;2023-03-01T10:23:44;98711.38;;;4.64;45.49
75627;BME280;67372;49.404;11.034;2023-03-01T10:26:48;98733.19;;;4.66;46.30
75627;BME280;67372;49.404;11.034;2023-03-01T10:29:09;98716.50;;;4.82;45.43
75627;BME280;67372;49.404;11.034;2023-03-01T10:31:40;98726.22;;;4.89;45.81
75627;BME280;67372;49.404;11.034;2023-03-01T10:34:13;98716.16;;;5.01;45.68
75627;BME280;67372;49.404;11.034;2023-03-01T10:36:41;98711.63;;;5.18;45.74
75627;BME280;67372;49.404;11.034;2023-03-01T10:39:14;98708.50;;;5.14;45.03
75627;BME280;67372;49.404;11.034;2023-03-01T10:42:02;98701.03;;;5.26;45.87
75627;BME280;67372;49.404;11.034;2023-03-01T10:44:39;98696.88;;;5.32;44.88
75627;BME280;67372;49.404;11.034;2023-03-01T10:47:13;98689.25;;;5.37;43.98
75627;BME280;67372;49.404;11.034;2023-03-01T10:49:52;98694.94;;;5.26;44.03
75627;BME280;67372;49.404;11.034;2023-03-01T10:52:21;98681.06;;;5.23;45.23
75627;BME280;67372;49.404;11.034;2023-03-01T10:57:37;98668.09;;;5.37;44.29
75627;BME280;67372;49.404;11.034;2023-03-01T11:02:42;98654.97;;;5.51;44.69
75627;BME280;67372;49.404;11.034;2023-03-01T11:05:22;98648.69;;;5.52;44.58
75627;BME280;67372;49.404;11.034;2023-03-01T11:07:57;98640.94;;;5.51;42.73
75627;BME280;67372;49.404;11.034;2023-03-01T11:10:29;98633.94;;;5.58;44.06
75627;BME280;67372;49.404;11.034;2023-03-01T11:13:11;98629.28;;;5.68;42.74
75627;BME280;67372;49.404;11.034;2023-03-01T11:15:40;98630.59;;;5.64;43.77
75627;BME280;67372;49.404;11.034;2023-03-01T11:18:19;98626.22;;;5.79;43.20
75627;BME280;67372;49.404;11.034;2023-03-01T11:20:48;98629.47;;;5.90;44.35
75627;BME280;67372;49.404;11.034;2023-03-01T11:23:18;98623.31;;;5.97;42.86
75627;BME280;67372;49.404;11.034;2023-03-01T11:26:07;98619.66;;;5.98;43.21
75627;BME280;67372;49.404;11.034;2023-03-01T11:28:39;98614.38;;;5.98;43.68
75627;BME280;67372;49.404;11.034;2023-03-01T11:31:09;98609.81;;;6.07;42.91
75627;BME280;67372;49.404;11.034;2023-03-01T11:33:42;98611.75;;;6.13;42.65
75627;BME280;67372;49.404;11.034;2023-03-01T11:38:55;98598.31;;;6.37;43.44
75627;BME280;67372;49.404;11.034;2023-03-01T11:41:30;98604.72;;;6.43;43.17
75627;BME280;67372;49.404;11.034;2023-03-01T11:44:01;98590.03;;;6.55;43.57
75627;BME280;67372;49.404;11.034;2023-03-01T11:52:15;98586.81;;;6.60;41.44
75627;BME280;67372;49.404;11.034;2023-03-01T11:55:07;98582.09;;;6.70;42.40
75627;BME280;67372;49.404;11.034;2023-03-01T12:03:25;98582.00;;;6.78;41.65
75627;BME280;67372;49.404;11.034;2023-03-01T12:06:34;98571.22;;;6.80;41.01
75627;BME280;67372;49.404;11.034;2023-03-01T12:12:15;98558.59;;;6.96;41.22
75627;BME280;67372;49.404;11.034;2023-03-01T12:24:03;98544.44;;;7.40;40.65
75627;BME280;67372;49.404;11.034;2023-03-01T12:29:10;98533.19;;;7.38;40.11
75627;BME280;67372;49.404;11.034;2023-03-01T12:45:57;98503.81;;;7.39;40.63
75627;BME280;67372;49.404;11.034;2023-03-01T12:51:11;98489.38;;;7.49;40.51
75627;BME280;67372;49.404;11.034;2023-03-01T12:53:47;98483.94;;;7.57;41.74
75627;BME280;67372;49.404;11.034;2023-03-01T12:56:17;98482.25;;;7.70;42.26
75627;BME280;67372;49.404;11.034;2023-03-01T12:59:09;98479.31;;;7.87;41.51
75627;BME280;67372;49.404;11.034;2023-03-01T13:04:51;98480.97;;;8.16;40.71
75627;BME280;67372;49.404;11.034;2023-03-01T13:07:25;98482.50;;;8.04;40.27
75627;BME280;67372;49.404;11.034;2023-03-01T13:15:36;98475.81;;;8.08;41.27
75627;BME280;67372;49.404;11.034;2023-03-01T13:23:13;98478.78;;;7.98;41.59
75627;BME280;67372;49.404;11.034;2023-03-01T13:31:08;98454.84;;;7.91;42.40
75627;BME280;67372;49.404;11.034;2023-03-01T13:34:02;98463.75;;;8.05;42.63
75627;BME280;67372;49.404;11.034;2023-03-01T13:44:21;98444.66;;;7.95;43.17
75627;BME280;67372;49.404;11.034;2023-03-01T13:46:51;98445.06;;;7.98;42.87
75627;BME280;67372;49.404;11.034;2023-03-01T13:49:21;98444.44;;;7.96;42.87
75627;BME280;67372;49.404;11.034;2023-03-01T13:51:49;98451.63;;;8.02;42.86
75627;BME280;67372;49.404;11.034;2023-03-01T13:54:26;98444.31;;;8.05;43.48
75627;BME280;67372;49.404;11.034;2023-03-01T13:56:55;98448.63;;;8.06;43.29
75627;BME280;67372;49.404;11.034;2023-03-01T13:59:22;98449.25;;;8.08;43.40
75627;BME280;67372;49.404;11.034;2023-03-01T14:01:54;98436.16;;;8.06;43.43
75627;BME280;67372;49.404;11.034;2023-03-01T14:04:31;98450.06;;;8.08;43.68
75627;BME280;67372;49.404;11.034;2023-03-01T14:07:21;98441.66;;;8.05;43.90
75627;BME280;67372;49.404;11.034;2023-03-01T14:09:51;98440.06;;;8.10;44.31
75627;BME280;67372;49.404;11.034;2023-03-01T14:18:00;98426.38;;;8.13;44.15
75627;BME280;67372;49.404;11.034;2023-03-01T14:20:37;98438.91;;;8.26;44.13
75627;BME280;67372;49.404;11.034;2023-03-01T14:23:11;98443.88;;;8.29;44.46
75627;BME280;67372;49.404;11.034;2023-03-01T14:25:47;98448.63;;;8.34;43.75
75627;BME280;67372;49.404;11.034;2023-03-01T14:28:17;98442.66;;;8.31;43.61
75627;BME280;67372;49.404;11.034;2023-03-01T14:30:52;98437.66;;;8.22;43.75
75627;BME280;67372;49.404;11.034;2023-03-01T14:33:28;98438.66;;;8.14;43.93
75627;BME280;67372;49.404;11.034;2023-03-01T14:36:03;98442.56;;;8.18;44.09
75627;BME280;67372;49.404;11.034;2023-03-01T14:38:33;98439.91;;;8.18;44.05
75627;BME280;67372;49.404;11.034;2023-03-01T14:41:04;98433.38;;;8.21;44.22
75627;BME280;67372;49.404;11.034;2023-03-01T14:43:32;98432.94;;;8.17;44.31
75627;BME280;67372;49.404;11.034;2023-03-01T14:45:59;98430.53;;;8.22;44.28
75627;BME280;67372;49.404;11.034;2023-03-01T14:48:27;98425.63;;;8.26;44.63
75627;BME280;67372;49.404;11.034;2023-03-01T14:50:54;98437.47;;;8.23;44.24